A- A+ FrançaisEnglishEspañol中国

Services sur Internet Soldes sur Internet Des idées de cadeaux Météo Météo aéro

La météo à : Autours de vous Tarbes-Lourdes-PyrénéesPau-PyrénéesPersan-Beaumont Toulouse-Blagnac

manche à air

La météo aéronautique pour les pilotes, la préparation du vol avec les METAR (METeorological Aerodrome Report, message d'observation des conditions météorologiques pour l'aviation) et Les TAF (Terminal Aerodrome Forecast : message de prévision à court terme des conditions météorologiques pour l'aviation). Et les autres ressources comme les VAC (Visual Approch Chart) et les NOTAM (Notice To Airman) pour préprer les vols.

Aéroport Bou Saada (Algérie) / OACI DAAD/ IATA BUJ

L'altitude de l'aéroport Bou Saada est de 459 m = 1506 ft. Il est situé à proximité de (Algérie). La météo générale à 5 jours est disponible pour Ain el Hadjel situé à 47.7 km.

METAR de l'aéroport Bou Saada - DAAD

DAAD 151200Z 34005KT 8000 SCT030 25/12 Q1020

Décodage du METAR de l'aéroport Bou Saada (DZ)

METAR émis par DAAD le mardi 15 octobre 2019 à 12:00 heure TU. Attention ce METAR est obsolète car il a été émis il y a 22 heure et 8 minutes.

La visibilité est de 8 km = 5 sm.

La température est de 25°C = 77 °F et le point rosée est de 12°C = 54 °F . Ce qui correspond à 44% d'humidité relative.

Le QNH est de 1020 hPa = 30.12 inHg

Vent de 5 kt = 9 km/h, orienté à 340°.

Nuages : Nuages épars à 3000 ft = 910 mètres.

TAF de l'aéroport Bou Saada - DAAD

DAAD 151100Z 1512/1521 32008KT 8000 FEW033

DAAD 151100Z 1512/1521 32008KT 8000 quelques nuages à 033

Aéroport à proximité de Bou Saada

Météo générale à 5 jours à Ain el Hadjel (47.7 km)Aéroport Djelfa Tletsi (108 km)Aéroport Ain Oussera (122 km)Aéroport Setif Ain Arnat (138 km)Aéroport Biskra (Mohamed Khider?) (152 km)Aéroport Bejaia Soummam (172 km)Aéroport Alger Houuari Boumediene (175 km)

Vue aérienne de l'aéroport Bou Saada

NOTAM de l'aéroport Bou Saada

Les NOTAM sont fournis sans aucune garantie de leur actualité. Le pilote est le seul responsable de la vérification de sa validité avant de l'utiliser opérationnellement pour préparer un vol ou l'utiliser lors de sa navigation.

NOTAM Runway (du mardi 26 décembre 2017 à 09:12 au dimanche 25 mars 2018 à 09:00)

B1076/17 NOTAMR B0984/17
Q) DAAA/QMRLC/IV/NBO/A /000/999/3520N00412E005
A) DAAD B) 1712260912 C) 1803250900 EST
E) RWY 04/22 CLSD DUE TO WIP
RMK: HR 0700-1600 RWY 04/22 OPEN ONLY FOR ALGERIAN AIR FORCE ACFT
CREATED: 26 Dec 2017 11:17:00
SOURCE: DAAAYNYX

Sources des données